createdAt,value
2018-06-24T00:00:07.020Z,58.80
2018-06-24T00:02:37.711Z,59.20
2018-06-24T00:05:07.998Z,59.60
2018-06-24T00:07:39.265Z,59.70
2018-06-24T00:10:09.928Z,59.80
2018-06-24T00:12:41.665Z,60.00
2018-06-24T00:15:12.060Z,60.40
2018-06-24T00:17:42.470Z,61.20
2018-06-24T00:20:12.747Z,61.40
2018-06-24T00:22:43.503Z,61.60
2018-06-24T00:25:14.443Z,61.60
2018-06-24T00:27:44.770Z,61.80
2018-06-24T00:30:15.108Z,61.90
2018-06-24T00:32:45.586Z,61.80
2018-06-24T00:35:16.043Z,61.80
2018-06-24T00:37:46.421Z,62.10
2018-06-24T00:40:16.727Z,62.10
2018-06-24T00:42:47.055Z,62.70
2018-06-24T00:45:17.490Z,63.00
2018-06-24T00:47:48.157Z,63.00
2018-06-24T00:50:18.455Z,62.90
2018-06-24T00:52:48.682Z,62.80
2018-06-24T00:55:19.083Z,62.90
2018-06-24T00:57:49.418Z,63.00
2018-06-24T01:00:20.121Z,63.20
2018-06-24T01:02:50.748Z,63.50
2018-06-24T01:05:21.186Z,63.80
2018-06-24T01:07:51.464Z,63.80
2018-06-24T01:10:21.854Z,63.40
2018-06-24T01:12:52.399Z,63.50
2018-06-24T01:15:23.045Z,63.80
2018-06-24T01:17:53.535Z,63.90
2018-06-24T01:20:23.842Z,63.90
2018-06-24T01:22:54.225Z,64.10
2018-06-24T01:25:30.648Z,64.40
2018-06-24T01:28:08.332Z,64.60
2018-06-24T01:30:39.200Z,64.60
2018-06-24T01:33:10.300Z,64.50
2018-06-24T01:35:40.720Z,64.50
2018-06-24T01:38:10.999Z,64.70
2018-06-24T01:40:41.336Z,64.90
2018-06-24T01:43:11.694Z,64.90
2018-06-24T01:45:42.018Z,64.80
2018-06-24T01:48:12.538Z,64.70
2018-06-24T01:50:42.994Z,64.70
2018-06-24T01:53:13.335Z,64.80
2018-06-24T01:55:43.591Z,64.80
2018-06-24T01:58:13.869Z,65.00
2018-06-24T02:00:44.170Z,64.80
2018-06-24T02:03:14.432Z,64.70
2018-06-24T02:05:44.827Z,64.80
2018-06-24T02:08:15.376Z,65.00
2018-06-24T02:10:45.837Z,65.00
2018-06-24T02:13:16.281Z,64.90
2018-06-24T02:15:46.781Z,64.70
2018-06-24T02:18:17.507Z,64.70
2018-06-24T02:20:47.816Z,64.70
2018-06-24T02:23:18.374Z,64.60
2018-06-24T02:25:48.775Z,64.50
2018-06-24T02:28:19.309Z,64.30
2018-06-24T02:30:49.948Z,64.30
2018-06-24T02:33:20.334Z,64.20
2018-06-24T02:35:50.835Z,64.20
2018-06-24T02:38:21.311Z,64.10
2018-06-24T02:40:51.703Z,64.10
2018-06-24T02:43:22.072Z,64.30
2018-06-24T02:45:52.614Z,64.50
2018-06-24T02:48:22.876Z,64.50
2018-06-24T02:50:53.215Z,64.60
2018-06-24T02:53:23.960Z,64.60
2018-06-24T02:55:54.430Z,64.80
2018-06-24T02:58:24.761Z,64.70
2018-06-24T03:00:55.151Z,64.70
2018-06-24T03:03:25.463Z,64.50
2018-06-24T03:05:55.947Z,64.30
2018-06-24T03:08:26.249Z,64.40
2018-06-24T03:10:56.519Z,64.70
2018-06-24T03:13:27.133Z,65.00
2018-06-24T03:15:57.683Z,65.40
2018-06-24T03:18:27.886Z,65.40
2018-06-24T03:20:58.147Z,65.30
2018-06-24T03:23:28.415Z,65.00
2018-06-24T03:25:58.704Z,64.90
2018-06-24T03:28:28.910Z,64.70
2018-06-24T03:30:59.338Z,64.60
2018-06-24T03:33:29.843Z,64.90
2018-06-24T03:36:00.196Z,65.00
2018-06-24T03:38:30.690Z,64.50
2018-06-24T03:41:00.960Z,64.30
2018-06-24T03:43:31.408Z,64.50
2018-06-24T03:46:01.666Z,64.50
2018-06-24T03:48:31.919Z,64.40
2018-06-24T03:51:02.179Z,64.00
2018-06-24T03:53:32.826Z,64.10
2018-06-24T03:56:03.138Z,64.30
2018-06-24T03:58:33.672Z,64.30
2018-06-24T04:01:03.959Z,64.20
2018-06-24T04:03:34.216Z,64.10
2018-06-24T04:06:04.528Z,64.00
2018-06-24T04:08:34.742Z,63.70
2018-06-24T04:11:05.074Z,63.60
2018-06-24T04:13:35.275Z,63.60
2018-06-24T04:16:06.811Z,63.70
2018-06-24T04:18:41.603Z,63.70
2018-06-24T04:21:13.798Z,63.50
2018-06-24T04:23:45.008Z,63.40
2018-06-24T04:26:15.360Z,62.70
2018-06-24T04:28:46.027Z,62.80
2018-06-24T04:31:16.274Z,62.60
2018-06-24T04:33:46.546Z,62.60
2018-06-24T04:36:16.873Z,62.50
2018-06-24T04:38:47.091Z,62.20
2018-06-24T04:41:17.358Z,62.20
2018-06-24T04:43:47.583Z,62.20
2018-06-24T04:46:17.831Z,62.30
2018-06-24T04:48:48.051Z,62.10
2018-06-24T04:51:18.335Z,61.50
2018-06-24T04:53:48.563Z,61.00
2018-06-24T04:56:18.791Z,61.10
2018-06-24T04:58:49.034Z,60.60
2018-06-24T05:01:19.264Z,60.70
2018-06-24T05:03:49.549Z,60.50
2018-06-24T05:06:19.827Z,60.20
2018-06-24T05:08:50.073Z,60.20
2018-06-24T05:11:20.343Z,60.00
2018-06-24T05:13:50.612Z,59.50
2018-06-24T05:16:20.895Z,59.70
2018-06-24T05:18:51.194Z,59.40
2018-06-24T05:21:21.443Z,59.60
2018-06-24T05:23:51.692Z,58.90
2018-06-24T05:26:21.894Z,58.80
2018-06-24T05:28:52.458Z,58.00
2018-06-24T05:31:22.658Z,57.50
2018-06-24T05:33:52.890Z,57.50
2018-06-24T05:36:23.090Z,57.20
2018-06-24T05:38:53.681Z,56.60
2018-06-24T05:41:24.864Z,56.40
2018-06-24T05:43:55.926Z,56.00
2018-06-24T05:46:26.256Z,55.80
2018-06-24T05:48:56.753Z,56.20
2018-06-24T05:51:27.052Z,55.20
2018-06-24T05:53:57.439Z,55.30
2018-06-24T05:56:28.333Z,54.90
2018-06-24T05:58:58.707Z,54.10
2018-06-24T06:01:29.063Z,53.80
2018-06-24T06:03:59.524Z,53.50
2018-06-24T06:06:29.810Z,53.40
2018-06-24T06:09:00.081Z,53.00
2018-06-24T06:11:30.365Z,52.40
2018-06-24T06:14:00.693Z,52.10
2018-06-24T06:16:31.028Z,52.10
2018-06-24T06:19:01.585Z,51.80
2018-06-24T06:21:32.059Z,51.10
2018-06-24T06:24:02.480Z,51.30
2018-06-24T06:26:32.859Z,50.60
2018-06-24T06:29:03.152Z,49.60
2018-06-24T06:31:33.780Z,49.70
2018-06-24T06:34:04.128Z,49.10
2018-06-24T06:36:34.768Z,47.70
2018-06-24T06:39:07.884Z,46.30
2018-06-24T06:41:38.287Z,46.30
2018-06-24T06:44:08.631Z,44.60
2018-06-24T06:46:39.075Z,44.20
2018-06-24T06:49:09.708Z,43.80
2018-06-24T06:51:40.143Z,44.10
2018-06-24T06:54:10.594Z,43.80
2018-06-24T06:56:41.615Z,44.70
2018-06-24T06:59:12.087Z,44.00
2018-06-24T07:01:42.586Z,44.50
2018-06-24T07:04:12.920Z,43.60
2018-06-24T07:06:43.171Z,43.70
2018-06-24T07:09:13.741Z,42.80
2018-06-24T07:11:43.968Z,42.70
2018-06-24T07:14:14.253Z,42.70
2018-06-24T07:16:44.504Z,42.70
2018-06-24T07:19:14.850Z,42.20
2018-06-24T07:21:45.107Z,42.50
2018-06-24T07:24:15.411Z,42.00
2018-06-24T07:26:45.715Z,41.50
2018-06-24T07:29:16.042Z,41.20
2018-06-24T07:31:46.284Z,43.20
2018-06-24T07:34:16.675Z,41.50
2018-06-24T07:36:46.908Z,38.70
2018-06-24T07:39:17.271Z,38.40
2018-06-24T07:41:47.470Z,38.10
2018-06-24T07:44:17.774Z,39.00
2018-06-24T07:46:49.243Z,37.80
2018-06-24T07:49:21.803Z,36.80
2018-06-24T07:51:52.113Z,37.10
2018-06-24T07:54:22.651Z,37.00
2018-06-24T07:56:53.111Z,37.50
2018-06-24T07:59:23.940Z,39.00
2018-06-24T08:01:54.343Z,38.80
2018-06-24T08:04:24.914Z,38.10
2018-06-24T08:06:55.403Z,38.60
2018-06-24T08:09:25.994Z,38.60
2018-06-24T08:12:02.586Z,38.80
2018-06-24T08:14:34.460Z,37.20
2018-06-24T08:17:06.911Z,38.10
2018-06-24T08:19:38.527Z,37.50
2018-06-24T08:22:09.368Z,38.00
2018-06-24T08:24:39.978Z,37.90
2018-06-24T08:27:10.956Z,38.30
2018-06-24T08:29:41.567Z,37.30
2018-06-24T08:32:12.818Z,37.40
2018-06-24T08:34:44.145Z,37.70
2018-06-24T08:37:14.698Z,34.80
2018-06-24T08:39:45.858Z,35.40
2018-06-24T08:42:16.895Z,35.30
2018-06-24T08:44:48.071Z,34.00
2018-06-24T08:47:19.400Z,34.40
2018-06-24T08:49:50.425Z,34.00
2018-06-24T08:52:21.539Z,33.40
2018-06-24T08:54:52.898Z,33.90
2018-06-24T08:57:24.155Z,34.30
2018-06-24T08:59:59.514Z,33.50
2018-06-24T09:02:30.699Z,34.30
2018-06-24T09:05:01.236Z,35.20
2018-06-24T09:07:31.868Z,34.30
2018-06-24T09:10:02.354Z,34.20
2018-06-24T09:12:32.629Z,33.30
2018-06-24T09:15:02.860Z,33.80
2018-06-24T09:17:33.350Z,33.40
2018-06-24T09:20:04.537Z,32.70
2018-06-24T09:22:34.816Z,34.50
2018-06-24T09:25:05.221Z,33.10
2018-06-24T09:27:35.555Z,31.90
2018-06-24T09:30:06.191Z,32.90
2018-06-24T09:32:44.449Z,32.40
2018-06-24T09:35:17.863Z,32.10
2018-06-24T09:37:48.831Z,31.80
2018-06-24T09:40:20.823Z,32.40
2018-06-24T09:42:51.144Z,31.50
2018-06-24T09:45:21.403Z,32.10
2018-06-24T09:47:54.647Z,31.40
2018-06-24T09:50:29.911Z,31.30
2018-06-24T09:53:02.595Z,31.70
2018-06-24T09:55:33.607Z,34.00
2018-06-24T09:58:06.623Z,32.00
2018-06-24T10:00:38.000Z,32.10
2018-06-24T10:03:10.478Z,32.10
2018-06-24T10:05:42.542Z,32.00
2018-06-24T10:08:13.969Z,30.70
2018-06-24T10:10:45.603Z,31.70
2018-06-24T10:13:16.129Z,31.80
2018-06-24T10:15:47.940Z,31.50
2018-06-24T10:18:18.617Z,30.80
2018-06-24T10:20:49.044Z,29.80
2018-06-24T10:23:19.349Z,29.50
2018-06-24T10:25:49.847Z,29.00
2018-06-24T10:28:22.561Z,30.30
2018-06-24T10:31:02.977Z,30.20
2018-06-24T10:33:42.599Z,30.90
2018-06-24T10:36:22.754Z,32.00
2018-06-24T10:38:53.287Z,31.60
2018-06-24T10:41:42.392Z,31.50
2018-06-24T10:44:16.114Z,30.60
2018-06-24T10:46:47.630Z,30.20
2018-06-24T10:49:28.829Z,31.30
2018-06-24T10:52:06.620Z,32.10
2018-06-24T10:54:39.040Z,31.30
2018-06-24T10:57:11.383Z,29.40
2018-06-24T10:59:50.892Z,30.60
2018-06-24T11:02:25.671Z,29.30
2018-06-24T11:04:59.781Z,29.10
2018-06-24T11:07:48.897Z,28.20
2018-06-24T11:10:33.053Z,28.30
2018-06-24T11:13:10.148Z,26.90
2018-06-24T11:15:46.953Z,26.80
2018-06-24T11:18:24.083Z,27.20
2018-06-24T11:21:12.263Z,27.40
2018-06-24T11:23:47.646Z,28.60
2018-06-24T11:26:18.624Z,28.80
2018-06-24T11:28:57.848Z,29.10
2018-06-24T11:31:30.379Z,29.10
2018-06-24T11:34:09.734Z,30.40
2018-06-24T11:36:40.649Z,29.20
2018-06-24T11:41:41.574Z,29.80
2018-06-24T11:44:12.401Z,31.20
2018-06-24T11:46:42.765Z,30.00
2018-06-24T11:49:13.085Z,29.00
2018-06-24T11:54:13.211Z,28.00
2018-06-24T11:56:43.447Z,28.60
2018-06-24T11:59:13.704Z,29.20
2018-06-24T12:01:43.972Z,30.00
2018-06-24T12:04:14.303Z,31.70
2018-06-24T12:06:44.618Z,31.60
2018-06-24T12:09:14.782Z,31.00
2018-06-24T12:11:46.437Z,31.90
2018-06-24T12:14:21.951Z,31.70
2018-06-24T12:16:52.946Z,31.40
2018-06-24T12:19:23.388Z,33.30
2018-06-24T12:21:53.672Z,32.70
2018-06-24T12:24:25.820Z,33.70
2018-06-24T12:26:56.295Z,34.10
2018-06-24T12:29:27.040Z,34.60
2018-06-24T12:31:57.773Z,34.20
2018-06-24T12:34:30.735Z,34.30
2018-06-24T12:37:09.282Z,34.90
2018-06-24T12:39:50.970Z,34.00
2018-06-24T12:42:25.564Z,34.10
2018-06-24T12:44:58.764Z,34.20
2018-06-24T12:47:35.468Z,33.60
2018-06-24T12:50:06.914Z,33.90
2018-06-24T12:52:37.270Z,33.90
2018-06-24T12:55:07.556Z,33.40
2018-06-24T12:57:37.899Z,33.70
2018-06-24T13:00:08.666Z,33.60
2018-06-24T13:02:38.941Z,33.20
2018-06-24T13:05:10.129Z,32.70
2018-06-24T13:07:40.645Z,32.70
2018-06-24T13:10:11.931Z,32.80
2018-06-24T13:12:42.355Z,33.40
2018-06-24T13:15:12.907Z,32.50
2018-06-24T13:17:43.797Z,32.60
2018-06-24T13:20:14.279Z,33.40
2018-06-24T13:22:48.271Z,33.80
2018-06-24T13:25:18.665Z,33.70
2018-06-24T13:27:49.370Z,33.20
2018-06-24T13:30:22.518Z,33.20
2018-06-24T13:32:54.388Z,33.00
2018-06-24T13:35:24.863Z,33.80
2018-06-24T13:37:59.384Z,33.80
2018-06-24T13:40:31.251Z,34.90
2018-06-24T13:43:01.591Z,34.70
2018-06-24T13:45:32.926Z,34.90
2018-06-24T13:48:05.744Z,34.20
2018-06-24T13:50:36.998Z,34.40
2018-06-24T13:53:07.817Z,34.20
2018-06-24T13:55:38.081Z,33.90
2018-06-24T13:58:08.401Z,33.80
2018-06-24T14:00:39.966Z,33.50
2018-06-24T14:03:11.017Z,33.60
2018-06-24T14:05:42.058Z,33.90
2018-06-24T14:08:12.404Z,34.00
2018-06-24T14:10:43.190Z,33.80
2018-06-24T14:13:13.471Z,32.60
2018-06-24T14:15:43.854Z,33.80
2018-06-24T14:18:14.199Z,33.70
2018-06-24T14:20:44.453Z,33.40
2018-06-24T14:23:14.798Z,33.60
2018-06-24T14:25:46.114Z,33.40
2018-06-24T14:28:16.655Z,33.00
2018-06-24T14:30:47.067Z,33.30
2018-06-24T14:33:17.400Z,33.50
2018-06-24T14:35:47.616Z,33.70
2018-06-24T14:38:17.904Z,33.80
2018-06-24T14:40:48.262Z,34.30
2018-06-24T14:43:18.649Z,34.20
2018-06-24T14:45:51.627Z,33.60
2018-06-24T14:48:24.110Z,34.50
2018-06-24T14:51:07.287Z,34.60
2018-06-24T14:53:37.956Z,35.00
2018-06-24T14:56:11.511Z,34.10
2018-06-24T14:58:42.499Z,35.20
2018-06-24T15:01:15.518Z,34.40
2018-06-24T15:03:45.934Z,34.80
2018-06-24T15:06:17.778Z,35.80
2018-06-24T15:08:54.151Z,34.90
2018-06-24T15:11:25.269Z,34.80
2018-06-24T15:13:57.532Z,36.30
2018-06-24T15:16:29.524Z,36.50
2018-06-24T15:19:01.424Z,37.00
2018-06-24T15:21:32.618Z,36.90
2018-06-24T15:24:03.018Z,36.70
2018-06-24T15:26:33.323Z,36.70
2018-06-24T15:29:03.736Z,36.80
2018-06-24T15:31:34.643Z,37.30
2018-06-24T15:34:05.255Z,37.30
2018-06-24T15:36:35.558Z,37.90
2018-06-24T15:39:09.675Z,38.50
2018-06-24T15:41:40.058Z,38.20
2018-06-24T15:44:10.420Z,37.20
2018-06-24T15:46:40.958Z,37.70
2018-06-24T15:49:11.435Z,37.50
2018-06-24T15:54:11.706Z,38.10
2018-06-24T15:56:42.070Z,38.30
2018-06-24T15:59:18.257Z,37.70
2018-06-24T16:01:48.608Z,37.30
2018-06-24T16:04:18.994Z,36.80
2018-06-24T16:06:49.250Z,36.90
2018-06-24T16:09:20.575Z,37.10
2018-06-24T16:11:51.381Z,36.70
2018-06-24T16:14:23.041Z,36.90
2018-06-24T16:16:54.385Z,34.60
2018-06-24T16:19:24.904Z,33.60
2018-06-24T16:21:55.199Z,33.10
2018-06-24T16:24:25.852Z,33.00
2018-06-24T16:26:56.131Z,32.30
2018-06-24T16:29:26.643Z,33.30
2018-06-24T16:31:56.913Z,32.40
2018-06-24T16:34:27.372Z,33.20
2018-06-24T16:36:57.856Z,33.20
2018-06-24T16:39:28.083Z,33.10
2018-06-24T16:41:58.423Z,33.20
2018-06-24T16:44:28.846Z,33.60
2018-06-24T16:46:59.143Z,34.80
2018-06-24T16:49:29.511Z,34.40
2018-06-24T16:52:00.295Z,34.30
2018-06-24T16:54:30.716Z,34.80
2018-06-24T16:57:08.619Z,35.70
2018-06-24T16:59:42.708Z,35.30
2018-06-24T17:02:14.515Z,35.20
2018-06-24T17:07:19.053Z,35.70
2018-06-24T17:09:49.615Z,35.40
2018-06-24T17:12:21.791Z,35.50
2018-06-24T17:14:52.067Z,35.60
2018-06-24T17:17:29.924Z,35.80
2018-06-24T17:20:05.163Z,36.40
2018-06-24T17:22:35.622Z,36.70
2018-06-24T17:25:09.381Z,36.60
2018-06-24T17:27:40.894Z,37.10
2018-06-24T17:30:21.219Z,37.30
2018-06-24T17:32:58.309Z,37.10
2018-06-24T17:35:30.816Z,37.90
2018-06-24T17:38:01.738Z,37.30
2018-06-24T17:40:33.221Z,37.50
2018-06-24T17:43:04.187Z,38.00
2018-06-24T17:45:35.267Z,38.40
2018-06-24T17:48:06.697Z,38.50
2018-06-24T17:50:37.095Z,38.40
2018-06-24T17:53:09.450Z,38.70
2018-06-24T17:55:39.889Z,38.60
2018-06-24T17:58:11.356Z,38.00
2018-06-24T18:00:41.807Z,38.70
2018-06-24T18:03:12.695Z,38.90
2018-06-24T18:05:44.737Z,38.90
2018-06-24T18:08:15.846Z,39.60
2018-06-24T18:10:46.027Z,40.70
2018-06-24T18:13:16.316Z,41.70
2018-06-24T18:15:46.726Z,42.50
2018-06-24T18:18:16.986Z,42.10
2018-06-24T18:20:47.279Z,43.50
2018-06-24T18:23:17.510Z,43.70
2018-06-24T18:25:47.892Z,41.80
2018-06-24T18:28:18.283Z,41.20
2018-06-24T18:30:48.655Z,41.30
2018-06-24T18:33:18.949Z,42.30
2018-06-24T18:35:49.211Z,41.80
2018-06-24T18:38:19.467Z,41.90
2018-06-24T18:40:49.769Z,42.10
2018-06-24T18:43:20.032Z,42.50
2018-06-24T18:45:50.355Z,42.50
2018-06-24T18:48:20.790Z,42.50
2018-06-24T18:50:51.075Z,42.60
2018-06-24T18:53:21.388Z,43.20
2018-06-24T18:55:51.733Z,43.40
2018-06-24T19:00:52.581Z,43.50
2018-06-24T19:03:23.100Z,43.80
2018-06-24T19:05:53.430Z,44.10
2018-06-24T19:08:23.769Z,45.10
2018-06-24T19:13:24.026Z,44.70
2018-06-24T19:15:54.292Z,44.60
2018-06-24T19:18:24.751Z,45.30
2018-06-24T19:20:55.325Z,45.20
2018-06-24T19:23:25.867Z,45.20
2018-06-24T19:25:56.558Z,45.70
2018-06-24T19:28:27.665Z,45.50
2018-06-24T19:30:58.248Z,45.70
2018-06-24T19:33:28.930Z,46.20
2018-06-24T19:35:59.396Z,46.20
2018-06-24T19:38:29.704Z,46.20
2018-06-24T19:41:00.143Z,46.20
2018-06-24T19:43:30.526Z,46.70
2018-06-24T19:46:01.115Z,47.00
2018-06-24T19:48:31.983Z,47.40
2018-06-24T19:51:02.751Z,47.40
2018-06-24T19:53:33.123Z,47.60
2018-06-24T19:56:03.458Z,48.30
2018-06-24T19:58:33.748Z,48.40
2018-06-24T20:01:04.012Z,48.70
2018-06-24T20:03:35.224Z,48.60
2018-06-24T20:06:05.476Z,48.60
2018-06-24T20:08:35.843Z,48.60
2018-06-24T20:11:06.135Z,49.10
2018-06-24T20:13:36.511Z,49.20
2018-06-24T20:16:08.166Z,49.50
2018-06-24T20:18:39.516Z,49.80
2018-06-24T20:21:10.689Z,50.20
2018-06-24T20:23:42.645Z,49.90
2018-06-24T20:26:13.379Z,50.10
2018-06-24T20:28:44.893Z,50.10
2018-06-24T20:31:15.323Z,50.20
2018-06-24T20:33:45.651Z,49.90
2018-06-24T20:36:15.960Z,49.90
2018-06-24T20:38:46.284Z,49.80
2018-06-24T20:41:16.530Z,50.00
2018-06-24T20:43:46.882Z,50.40
2018-06-24T20:46:17.199Z,50.70
2018-06-24T20:48:47.904Z,51.00
2018-06-24T20:51:18.147Z,51.50
2018-06-24T20:53:50.815Z,51.50
2018-06-24T20:56:22.123Z,51.10
2018-06-24T20:58:53.475Z,51.00
2018-06-24T21:01:25.105Z,51.40
2018-06-24T21:03:56.374Z,52.00
2018-06-24T21:06:28.308Z,52.20
2018-06-24T21:09:01.512Z,51.80
2018-06-24T21:11:35.186Z,51.90
2018-06-24T21:14:09.681Z,52.00
2018-06-24T21:16:41.090Z,51.80
2018-06-24T21:19:12.015Z,52.10
2018-06-24T21:21:43.274Z,52.50
2018-06-24T21:24:14.084Z,52.50
2018-06-24T21:26:45.132Z,52.50
2018-06-24T21:29:15.952Z,52.50
2018-06-24T21:31:47.602Z,52.20
2018-06-24T21:34:19.121Z,52.30
2018-06-24T21:36:51.949Z,52.60
2018-06-24T21:39:23.977Z,52.30
2018-06-24T21:41:55.182Z,52.50
2018-06-24T21:44:26.820Z,52.40
2018-06-24T21:46:57.933Z,52.70
2018-06-24T21:49:30.487Z,52.60
2018-06-24T21:52:01.253Z,52.70
2018-06-24T21:54:32.369Z,52.50
2018-06-24T21:57:13.113Z,51.90
2018-06-24T21:59:47.424Z,51.70
2018-06-24T22:02:19.888Z,51.40
2018-06-24T22:04:50.757Z,50.80
2018-06-24T22:07:22.275Z,50.40
2018-06-24T22:09:54.453Z,50.70
2018-06-24T22:12:25.780Z,50.60
2018-06-24T22:14:56.809Z,50.80
2018-06-24T22:17:28.127Z,51.20
2018-06-24T22:19:59.208Z,51.10
2018-06-24T22:22:31.011Z,50.90
2018-06-24T22:25:01.510Z,50.50
2018-06-24T22:27:33.286Z,50.50
2018-06-24T22:30:06.744Z,50.40
2018-06-24T22:32:37.275Z,50.40
2018-06-24T22:35:09.465Z,50.20
2018-06-24T22:37:40.913Z,50.40
2018-06-24T22:40:11.493Z,50.20
2018-06-24T22:42:44.313Z,50.40
2018-06-24T22:45:15.111Z,50.00
2018-06-24T22:47:46.254Z,49.80
2018-06-24T22:50:16.647Z,49.70
2018-06-24T22:52:48.443Z,49.60
2018-06-24T22:55:20.238Z,49.90
2018-06-24T22:57:51.099Z,49.90
2018-06-24T23:00:23.008Z,50.10
2018-06-24T23:02:53.916Z,49.90
2018-06-24T23:05:25.715Z,50.00
2018-06-24T23:07:56.096Z,49.70
2018-06-24T23:10:26.315Z,49.90
2018-06-24T23:12:56.711Z,49.80
2018-06-24T23:15:27.015Z,50.00
2018-06-24T23:17:57.383Z,50.30
2018-06-24T23:20:27.718Z,50.70
2018-06-24T23:22:58.294Z,50.80
2018-06-24T23:25:28.678Z,50.90
2018-06-24T23:27:58.957Z,50.60
2018-06-24T23:30:29.181Z,50.30
2018-06-24T23:32:59.596Z,50.30
2018-06-24T23:35:30.152Z,50.20
2018-06-24T23:38:00.459Z,49.90
2018-06-24T23:40:30.732Z,50.00
2018-06-24T23:43:00.975Z,49.90
2018-06-24T23:45:31.202Z,49.50
2018-06-24T23:48:01.419Z,49.70
2018-06-24T23:50:31.712Z,49.60
2018-06-24T23:53:01.923Z,50.00
2018-06-24T23:55:32.554Z,50.20
2018-06-24T23:58:02.787Z,50.40
